FCO weather

Leonardo da Vinci–Fiumicino Airport
Rome, Lazio, Italy

Public forecast

Using degrees Celsius for public forecast. Weather courtesy of forecast.io.

Current aviation weather report (METAR) for Leonardo da Vinci–Fiumicino Airport

Retrieved 2019/10/18 19:20 UTC (31 minutes ago):

LIRF 181920Z 03002KT CAVOK 16/14 Q1018 NOSIG

Aviation forecast (TAF) for Leonardo da Vinci–Fiumicino Airport

Retrieved 2019/10/18 18:00 UTC (2 hours ago):

TAF LIRF 181700Z 1818/1924 VRB04KT CAVOK BECMG 1909/1911 21012KT BECMG 1916/1918 VRB04KT